Terminal Aerodrome Forecast
Issued by NWS Milwaukee/Sullivan, WI

Home | Current Version | Previous Version | Text Only | Print | Product List | Glossary On
Versions: 1 2 3 4 5 6 7 8 9 10 11 12 13 14 15 16 17 18 19 20 21 22 23 24 25 26
000
FTUS43 KMKX 290520
TAFMSN
TAF
KMSN 290520Z 2906/3006 20006KT P6SM BKN070
     FM291200 21007KT P6SM BKN025
     FM291300 23007KT P6SM BKN015
     FM291500 25008KT P6SM VCSH OVC035
     FM292300 27010KT P6SM SCT200
     FM300200 26005KT P6SM FEW200=

USA.gov is the U.S. government's official web portal to all federal, state and local government web resources and services.